Terminal Aerodrome Forecast
Issued by NWS Billings, MT

Home | Current Version | Previous Version | Text Only | Print | Product List | Glossary On
Versions: 1 2 3 4 5 6 7 8 9 10 11 12 13 14 15 16 17 18 19 20 21 22 23 24 25 26 27 28 29 30
000
FTUS45 KBYZ 231740
TAFBIL
TAF
KBIL 231740Z 2318/2418 01017G23KT 1/2SM SN FG OVC003
     FM231900 02017G23KT 3SM -RASN BR SCT003 BKN010 OVC025
      TEMPO 2319/2320 1/2SM SN FG OVC003
     FM232200 01012KT 6SM -RASN BR SCT015 OVC025
     FM240100 35009KT P6SM VCSH SCT025 BKN040
     FM240400 24006KT P6SM FEW025=

USA.gov is the U.S. government's official web portal to all federal, state and local government web resources and services.